Weather at Portland International Airport

Public forecast

Using degrees Fahrenheit for public forecast. Weather courtesy of forecast.io.

Current aviation weather report (METAR) for Portland International Airport

Retrieved 2022/05/23 08:53 UTC (20 minutes ago):

KPDX 230853Z 00000KT 10SM SCT070 BKN100 BKN140 15/09 A3020 RMK AO2 SLP224 T01500089 53007

Aviation forecast (TAF) for Portland International Airport

Retrieved 2022/05/23 06:22 UTC (3 hours ago):

TAF KPDX 230520Z 2306/2406 30005KT P6SM BKN200 FM230800 32003KT P6SM SCT050 OVC080 FM232000 31007KT P6SM SCT035 OVC050